ENSO

Stord Airport

Leirvik, Norway
METAR ENSO 241720Z VRB01KT 9999 SCT052TCU 06/05 Q1029
Observed Flight Rules
Sep-24 @ 17:20 UTC (2 hours ago) Visual Flight Rules
Wind Visibility Clouds
Variable at 1 knots 10,000+ meters
  • Scattered at 5,200' AGL
Temperatures Readings
Current 6°C / 43°F
Dewpoint 5°C / 41°F
Humidity 93%
Altimeter 30.38" Hg
Pressure 1029 hPa
Elevation 49
METAR ENSO 241720Z VRB01KT 9999 SCT052TCU 06/05 Q1029
Observed Flight Rules
Sep-24 @ 17:20 UTC
(2 hours ago)
VFR
Wind Visibility
Variable at 1 knots 10,000+ meters
Clouds
  • Scattered at 5,200' AGL
Temperature Dewpoint
6°C / 43°F 5°C / 41°F
Humidity Altimeter Pressure
93% 30.38" Hg 1029 hPa